Time;durP1;ratioP1;P1;durP2;ratioP2;P2;SDS_P1;SDS_P2;PMS_P1;PMS_P2;Temp;Humidity;BMP_temperature;BMP_pressure;BME280_temperature;BME280_humidity;BME280_pressure;Samples;Min_cycle;Max_cycle;Signal;HPM_P1;HPM_P2
2022/06/16 00:03:23;;;;;;;;;;;;;;;;;;10463843;28;19924;-60
2022/06/16 00:08:26;;;;;;;;;;;;;;;;;;10502504;28;19924;-60
2022/06/16 00:13:28;;;;;;;;;;;;;;;;;;10495779;28;19929;-60
2022/06/16 00:18:30;;;;;;;;;;;;;;;;;;10460767;28;19935;-60
2022/06/16 00:23:32;;;;;;;;;;;;;;;;;;10459983;28;20303;-60
2022/06/16 00:28:40;;;;;;;;;;;;;;;;;;10491762;28;19924;-60
2022/06/16 00:33:42;;;;;;;;;;;;;;;;;;10468105;28;19925;-60
2022/06/16 00:38:45;;;;;;;;;;;;;;;;;;10459368;28;19924;-60
2022/06/16 00:43:47;;;;;;;;;;;;;;;;;;10499668;28;19930;-61
2022/06/16 00:48:49;;;;;;;;;;;;;;;;;;10500256;28;19928;-60
2022/06/16 00:53:51;;;;;;;;;;;;;;;;;;10498696;28;19924;-60
2022/06/16 00:58:53;;;;;;;;;;;;;;;;;;10464857;28;20372;-60
2022/06/16 01:09:16;;;;;;;;;;;;;;;;;;10458675;28;19932;-60
2022/06/16 01:14:18;;;;;;;;;;;;;;;;;;10472857;28;19929;-60
2022/06/16 01:19:20;;;;;;;;;;;;;;;;;;10499108;28;20283;-60
2022/06/16 01:24:22;;;;;;;;;;;;;;;;;;10499272;28;19924;-60
2022/06/16 01:29:24;;;;;;;;;;;;;;;;;;10499378;28;19931;-60
2022/06/16 01:34:26;;;;;;;;;;;;;;;;;;10472295;28;19929;-60
2022/06/16 01:39:28;;;;;;;;;;;;;;;;;;10499190;28;19928;-60
2022/06/16 01:44:30;;;;;;;;;;;;;;;;;;10497337;28;19932;-60
2022/06/16 01:49:32;;;;;;;;;;;;;;;;;;10496543;28;20363;-60
2022/06/16 01:54:34;;;;;;;;;;;;;;;;;;10457895;28;19925;-60
2022/06/16 01:59:36;;;;;;;;;;;;;;;;;;10492927;28;19925;-60
2022/06/16 02:04:39;;;;;;;;;;;;;;;;;;10497135;28;19936;-60
2022/06/16 02:09:41;;;;;;;;;;;;;;;;;;10498190;28;19932;-60
2022/06/16 02:14:43;;;;;;;;;;;;;;;;;;10496055;28;19926;-60
2022/06/16 02:19:45;;;;;;;;;;;;;;;;;;10494914;28;19931;-60
2022/06/16 02:24:47;;;;;;;;;;;;;;;;;;10456212;28;20371;-60
2022/06/16 02:29:49;;;;;;;;;;;;;;;;;;10456169;28;19929;-60
2022/06/16 02:34:51;;;;;;;;;;;;;;;;;;10456075;28;19925;-60
2022/06/16 02:39:53;;;;;;;;;;;;;;;;;;10456507;28;19932;-60
2022/06/16 02:44:55;;;;;;;;;;;;;;;;;;10455595;28;20380;-60
2022/06/16 02:49:57;;;;;;;;;;;;;;;;;;10492156;28;19931;-60
2022/06/16 02:55:04;;;;;;;;;;;;;;;;;;10500464;28;19928;-60
2022/06/16 03:00:09;;;;;;;;;;;;;;;;;;10503146;28;20003;-60
2022/06/16 03:05:11;;;;;;;;;;;;;;;;;;10504958;28;19932;-60
2022/06/16 03:10:14;;;;;;;;;;;;;;;;;;10502487;28;20375;-61
2022/06/16 03:15:16;;;;;;;;;;;;;;;;;;10490702;28;19940;-60
2022/06/16 03:20:18;;;;;;;;;;;;;;;;;;10461303;28;20395;-61
2022/06/16 03:25:20;;;;;;;;;;;;;;;;;;10462866;28;19924;-60
2022/06/16 03:30:22;;;;;;;;;;;;;;;;;;10463687;28;19932;-60
2022/06/16 03:35:24;;;;;;;;;;;;;;;;;;10461832;28;19925;-60
2022/06/16 03:40:26;;;;;;;;;;;;;;;;;;10461173;28;19924;-60
2022/06/16 03:45:28;;;;;;;;;;;;;;;;;;10476338;28;20368;-60
2022/06/16 03:50:30;;;;;;;;;;;;;;;;;;10501561;28;19928;-60
2022/06/16 03:55:32;;;;;;;;;;;;;;;;;;10484976;28;19991;-60
2022/06/16 04:00:35;;;;;;;;;;;;;;;;;;10461519;28;19925;-60
2022/06/16 04:05:37;;;;;;;;;;;;;;;;;;10460865;28;19925;-60
2022/06/16 04:10:39;;;;;;;;;;;;;;;;;;10467946;28;19936;-60
2022/06/16 04:15:41;;;;;;;;;;;;;;;;;;10480823;28;19924;-60
2022/06/16 04:20:43;;;;;;;;;;;;;;;;;;10460108;28;19931;-60
2022/06/16 04:25:45;;;;;;;;;;;;;;;;;;10459956;28;20395;-60
2022/06/16 04:30:47;;;;;;;;;;;;;;;;;;10468695;28;19924;-60
2022/06/16 04:35:49;;;;;;;;;;;;;;;;;;10501157;28;19959;-60
2022/06/16 04:40:51;;;;;;;;;;;;;;;;;;10501219;28;19925;-60
2022/06/16 04:45:55;;;;;;;;;;;;;;;;;;10477570;28;19925;-60
2022/06/16 04:50:57;;;;;;;;;;;;;;;;;;10460552;28;19928;-60
2022/06/16 04:55:59;;;;;;;;;;;;;;;;;;10458677;28;20292;-60
2022/06/16 05:01:01;;;;;;;;;;;;;;;;;;10459190;28;19925;-60
2022/06/16 05:06:23;;;;;;;;;;;;;;;;;;10458986;28;19924;-60
2022/06/16 05:11:25;;;;;;;;;;;;;;;;;;10471804;28;19928;-60
2022/06/16 05:16:27;;;;;;;;;;;;;;;;;;10465029;28;19925;-61
2022/06/16 05:21:30;;;;;;;;;;;;;;;;;;10457138;28;19950;-60
2022/06/16 05:26:32;;;;;;;;;;;;;;;;;;10457461;28;19924;-60
2022/06/16 05:31:34;;;;;;;;;;;;;;;;;;10472157;28;20401;-60
2022/06/16 05:36:36;;;;;;;;;;;;;;;;;;10498929;28;19928;-60
2022/06/16 05:41:39;;;;;;;;;;;;;;;;;;10498525;28;20367;-60
2022/06/16 05:46:41;;;;;;;;;;;;;;;;;;10496509;28;19925;-60
2022/06/16 05:51:43;;;;;;;;;;;;;;;;;;10497264;28;19946;-60
2022/06/16 05:56:45;;;;;;;;;;;;;;;;;;10498622;28;19931;-60
2022/06/16 06:01:47;;;;;;;;;;;;;;;;;;10496785;28;19924;-60
2022/06/16 06:06:50;;;;;;;;;;;;;;;;;;10498449;28;19975;-60
2022/06/16 06:17:12;;;;;;;;;;;;;;;;;;10498452;28;19936;-60
2022/06/16 06:22:15;;;;;;;;;;;;;;;;;;10459408;28;19974;-60
2022/06/16 06:27:17;;;;;;;;;;;;;;;;;;10456668;28;19932;-60
2022/06/16 06:32:19;;;;;;;;;;;;;;;;;;10498318;28;19928;-60
2022/06/16 06:37:21;;;;;;;;;;;;;;;;;;10506213;28;19999;-60
2022/06/16 06:42:23;;;;;;;;;;;;;;;;;;10505819;28;19924;-60
2022/06/16 06:47:25;;;;;;;;;;;;;;;;;;10503744;28;19932;-60
2022/06/16 06:52:28;;;;;;;;;;;;;;;;;;10501579;28;19924;-60
2022/06/16 06:57:30;;;;;;;;;;;;;;;;;;10507766;22;19929;-69
2022/06/16 07:02:32;;;;;;;;;;;;;;;;;;10427069;28;19932;-69
2022/06/16 07:07:34;;;;;;;;;;;;;;;;;;10421258;28;19929;-69
2022/06/16 07:12:36;;;;;;;;;;;;;;;;;;10462577;28;20380;-69
2022/06/16 07:17:38;;;;;;;;;;;;;;;;;;10463345;28;19951;-69
2022/06/16 07:22:40;;;;;;;;;;;;;;;;;;10462521;28;20275;-69
2022/06/16 07:27:43;;;;;;;;;;;;;;;;;;10462098;28;20375;-69
2022/06/16 07:32:45;;;;;;;;;;;;;;;;;;10462651;28;19925;-69
2022/06/16 07:37:47;;;;;;;;;;;;;;;;;;10460534;28;19932;-69
2022/06/16 07:42:50;;;;;;;;;;;;;;;;;;10459254;28;19925;-69
2022/06/16 07:47:52;;;;;;;;;;;;;;;;;;10460991;28;19924;-69
2022/06/16 07:52:54;;;;;;;;;;;;;;;;;;10460954;28;19925;-69
2022/06/16 07:57:56;;;;;;;;;;;;;;;;;;10461084;28;19925;-69
2022/06/16 08:02:58;;;;;;;;;;;;;;;;;;10460163;28;19929;-69
2022/06/16 08:08:00;;;;;;;;;;;;;;;;;;10461212;28;19924;-69
2022/06/16 08:13:02;;;;;;;;;;;;;;;;;;10461007;28;19925;-69
2022/06/16 08:18:04;;;;;;;;;;;;;;;;;;10460906;28;19933;-69
2022/06/16 08:23:06;;;;;;;;;;;;;;;;;;10460712;28;19924;-68
2022/06/16 08:28:08;;;;;;;;;;;;;;;;;;10460466;28;20291;-68
2022/06/16 08:33:13;;;;;;;;;;;;;;;;;;10460322;28;19932;-68
2022/06/16 08:38:15;;;;;;;;;;;;;;;;;;10460142;28;19956;-68
2022/06/16 08:43:18;;;;;;;;;;;;;;;;;;10459910;28;19932;-69
2022/06/16 08:48:20;;;;;;;;;;;;;;;;;;10459196;28;19932;-68
2022/06/16 08:53:22;;;;;;;;;;;;;;;;;;10459404;28;19925;-68
2022/06/16 08:58:26;;;;;;;;;;;;;;;;;;10459176;28;19925;-69
2022/06/16 09:03:28;;;;;;;;;;;;;;;;;;10458364;28;20306;-68
2022/06/16 09:08:30;;;;;;;;;;;;;;;;;;10458865;28;19933;-69
2022/06/16 09:13:32;;;;;;;;;;;;;;;;;;10457627;28;20291;-69
2022/06/16 09:18:34;;;;;;;;;;;;;;;;;;10456274;28;19924;-69
2022/06/16 09:23:36;;;;;;;;;;;;;;;;;;10456611;28;20327;-69
2022/06/16 09:28:39;;;;;;;;;;;;;;;;;;10447089;28;19935;-69
2022/06/16 09:33:41;;;;;;;;;;;;;;;;;;10457046;28;19925;-70
2022/06/16 09:38:43;;;;;;;;;;;;;;;;;;10457283;28;19932;-69
2022/06/16 09:43:48;;;;;;;;;;;;;;;;;;10456229;28;19925;-69
2022/06/16 09:48:50;;;;;;;;;;;;;;;;;;10455955;28;20402;-69
2022/06/16 09:53:52;;;;;;;;;;;;;;;;;;10457350;28;19935;-70
2022/06/16 09:58:54;;;;;;;;;;;;;;;;;;10456508;28;20434;-69
2022/06/16 10:03:57;;;;;;;;;;;;;;;;;;10455190;28;19925;-69
2022/06/16 10:08:59;;;;;;;;;;;;;;;;;;10457064;28;19975;-69
2022/06/16 10:14:01;;;;;;;;;;;;;;;;;;10456189;28;19932;-69
2022/06/16 10:19:03;;;;;;;;;;;;;;;;;;10454431;28;19992;-69
2022/06/16 10:24:07;;;;;;;;;;;;;;;;;;10423350;28;19925;-69
2022/06/16 10:29:09;;;;;;;;;;;;;;;;;;10448519;28;19929;-70
2022/06/16 10:34:12;;;;;;;;;;;;;;;;;;10429625;28;19924;-69
2022/06/16 10:39:14;;;;;;;;;;;;;;;;;;10455436;28;20299;-69
2022/06/16 10:44:16;;;;;;;;;;;;;;;;;;10454323;28;20371;-69
2022/06/16 10:49:18;;;;;;;;;;;;;;;;;;10455230;28;20264;-70
2022/06/16 10:54:20;;;;;;;;;;;;;;;;;;10443324;28;20291;-67
2022/06/16 10:59:22;;;;;;;;;;;;;;;;;;10454997;28;20294;-67
2022/06/16 11:04:24;;;;;;;;;;;;;;;;;;10451277;28;19929;-67
2022/06/16 11:09:26;;;;;;;;;;;;;;;;;;10455494;28;19924;-68
2022/06/16 11:14:28;;;;;;;;;;;;;;;;;;10448967;28;19936;-68
2022/06/16 11:19:30;;;;;;;;;;;;;;;;;;10420204;28;20379;-67
2022/06/16 11:24:33;;;;;;;;;;;;;;;;;;10421860;28;19925;-67
2022/06/16 11:29:35;;;;;;;;;;;;;;;;;;10420874;28;19931;-67
2022/06/16 11:34:37;;;;;;;;;;;;;;;;;;10420887;28;19931;-68
2022/06/16 11:39:39;;;;;;;;;;;;;;;;;;10420719;28;20287;-68
2022/06/16 11:44:41;;;;;;;;;;;;;;;;;;10417630;28;20012;-67
2022/06/16 11:49:43;;;;;;;;;;;;;;;;;;10413580;28;19929;-68
2022/06/16 11:54:45;;;;;;;;;;;;;;;;;;10413814;28;19929;-67
2022/06/16 11:59:47;;;;;;;;;;;;;;;;;;10452518;28;19925;-68
2022/06/16 12:04:49;;;;;;;;;;;;;;;;;;10441287;28;20331;-68
2022/06/16 12:09:52;;;;;;;;;;;;;;;;;;10449716;28;20268;-67
2022/06/16 12:14:54;;;;;;;;;;;;;;;;;;10454212;28;20375;-65
2022/06/16 12:19:56;;;;;;;;;;;;;;;;;;10453435;28;19925;-65
2022/06/16 12:25:10;;;;;;;;;;;;;;;;;;10453279;28;20315;-65
2022/06/16 12:30:12;;;;;;;;;;;;;;;;;;10451229;28;19928;-66
2022/06/16 12:35:14;;;;;;;;;;;;;;;;;;10453318;28;19928;-65
2022/06/16 12:40:16;;;;;;;;;;;;;;;;;;10452323;28;19943;-65
2022/06/16 12:45:18;;;;;;;;;;;;;;;;;;10452939;28;19929;-65
2022/06/16 12:50:20;;;;;;;;;;;;;;;;;;10452832;28;19936;-65
2022/06/16 12:55:22;;;;;;;;;;;;;;;;;;10452332;28;19935;-66
2022/06/16 13:00:24;;;;;;;;;;;;;;;;;;10451499;28;19943;-65
2022/06/16 13:05:27;;;;;;;;;;;;;;;;;;10450928;28;20019;-66
2022/06/16 13:10:29;;;;;;;;;;;;;;;;;;10451379;28;20304;-65
2022/06/16 13:15:31;;;;;;;;;;;;;;;;;;10450432;28;19936;-65
2022/06/16 13:20:33;;;;;;;;;;;;;;;;;;10451769;28;19935;-66
2022/06/16 13:25:35;;;;;;;;;;;;;;;;;;10447968;28;19928;-65
2022/06/16 13:30:38;;;;;;;;;;;;;;;;;;10444150;28;20390;-66
2022/06/16 13:35:40;;;;;;;;;;;;;;;;;;10451283;28;19972;-65
2022/06/16 13:40:42;;;;;;;;;;;;;;;;;;10449633;28;20327;-65
2022/06/16 13:45:44;;;;;;;;;;;;;;;;;;10450176;28;19928;-65
2022/06/16 13:50:46;;;;;;;;;;;;;;;;;;10450034;28;19935;-64
2022/06/16 13:55:48;;;;;;;;;;;;;;;;;;10450646;28;19928;-65
2022/06/16 14:00:50;;;;;;;;;;;;;;;;;;10449398;28;19928;-65
2022/06/16 14:05:54;;;;;;;;;;;;;;;;;;10450409;28;19929;-65
2022/06/16 14:10:57;;;;;;;;;;;;;;;;;;10450219;28;19929;-65
2022/06/16 14:15:59;;;;;;;;;;;;;;;;;;10450145;28;20015;-65
2022/06/16 14:21:01;;;;;;;;;;;;;;;;;;10451986;28;20398;-65
2022/06/16 14:26:03;;;;;;;;;;;;;;;;;;10456920;28;19925;-64
2022/06/16 14:31:05;;;;;;;;;;;;;;;;;;10456718;28;19925;-64
2022/06/16 14:36:07;;;;;;;;;;;;;;;;;;10456776;28;19931;-65
2022/06/16 14:41:09;;;;;;;;;;;;;;;;;;10455547;28;20419;-65
2022/06/16 14:46:11;;;;;;;;;;;;;;;;;;10456285;28;19925;-65
2022/06/16 14:51:14;;;;;;;;;;;;;;;;;;10459753;28;19925;-66
2022/06/16 14:56:16;;;;;;;;;;;;;;;;;;10463702;28;19924;-66
2022/06/16 15:01:18;;;;;;;;;;;;;;;;;;10463329;28;19932;-65
2022/06/16 15:06:20;;;;;;;;;;;;;;;;;;10463312;28;20331;-66
2022/06/16 15:11:22;;;;;;;;;;;;;;;;;;10463164;28;20295;-65
2022/06/16 15:21:45;;;;;;;;;;;;;;;;;;10462633;28;20287;-65
2022/06/16 15:26:47;;;;;;;;;;;;;;;;;;10462461;28;20280;-65
2022/06/16 15:31:49;;;;;;;;;;;;;;;;;;10460484;28;20383;-66
2022/06/16 15:36:51;;;;;;;;;;;;;;;;;;10462350;28;19928;-65
2022/06/16 15:41:53;;;;;;;;;;;;;;;;;;10462356;28;19925;-67
2022/06/16 15:46:55;;;;;;;;;;;;;;;;;;10462448;28;19925;-65
2022/06/16 15:51:57;;;;;;;;;;;;;;;;;;10457152;28;19931;-66
2022/06/16 15:56:59;;;;;;;;;;;;;;;;;;10461370;28;19925;-66
2022/06/16 16:02:02;;;;;;;;;;;;;;;;;;10460901;28;19925;-66
2022/06/16 16:07:07;;;;;;;;;;;;;;;;;;10461154;28;19929;-66
2022/06/16 16:12:10;;;;;;;;;;;;;;;;;;10459987;28;19929;-66
2022/06/16 16:17:12;;;;;;;;;;;;;;;;;;10460538;28;19924;-66
2022/06/16 16:22:15;;;;;;;;;;;;;;;;;;10459472;28;20039;-66
2022/06/16 16:27:17;;;;;;;;;;;;;;;;;;10459597;28;20372;-66
2022/06/16 16:32:19;;;;;;;;;;;;;;;;;;10458179;28;20310;-66
2022/06/16 16:37:21;;;;;;;;;;;;;;;;;;10440602;28;20276;-65
2022/06/16 16:47:43;;;;;;;;;;;;;;;;;;10418116;28;19932;-66
2022/06/16 16:52:46;;;;;;;;;;;;;;;;;;10417808;28;20265;-65
2022/06/16 16:57:48;;;;;;;;;;;;;;;;;;10417585;28;19925;-65
2022/06/16 17:02:50;;;;;;;;;;;;;;;;;;10418186;28;19940;-65
2022/06/16 17:07:52;;;;;;;;;;;;;;;;;;10414304;28;20323;-65
2022/06/16 17:12:54;;;;;;;;;;;;;;;;;;10410058;28;20654;-65
2022/06/16 17:17:58;;;;;;;;;;;;;;;;;;10410412;28;19937;-64
2022/06/16 17:23:00;;;;;;;;;;;;;;;;;;10411881;28;19967;-64
2022/06/16 17:28:02;;;;;;;;;;;;;;;;;;10446362;28;20371;-65
2022/06/16 17:33:04;;;;;;;;;;;;;;;;;;10426015;28;19925;-64
2022/06/16 17:38:06;;;;;;;;;;;;;;;;;;10417576;28;19925;-65
2022/06/16 17:43:08;;;;;;;;;;;;;;;;;;10457392;28;19924;-65
2022/06/16 17:48:12;;;;;;;;;;;;;;;;;;10452729;28;20219;-64
2022/06/16 18:03:56;;;;;;;;;;;;;;;;;;10450503;28;19936;-64
2022/06/16 18:08:58;;;;;;;;;;;;;;;;;;10449905;28;19975;-64
2022/06/16 18:14:00;;;;;;;;;;;;;;;;;;10450201;28;19939;-64
2022/06/16 18:19:02;;;;;;;;;;;;;;;;;;10449230;28;19939;-64
2022/06/16 18:24:04;;;;;;;;;;;;;;;;;;10423241;28;19933;-64
2022/06/16 18:29:07;;;;;;;;;;;;;;;;;;10441436;28;19929;-64
2022/06/16 18:34:09;;;;;;;;;;;;;;;;;;10458246;28;19929;-64
2022/06/16 18:39:11;;;;;;;;;;;;;;;;;;10457770;28;19935;-64
2022/06/16 18:44:13;;;;;;;;;;;;;;;;;;10457610;28;19928;-64
2022/06/16 18:49:15;;;;;;;;;;;;;;;;;;10451961;28;19952;-64
2022/06/16 18:54:17;;;;;;;;;;;;;;;;;;10442324;28;19940;-64
2022/06/16 18:59:19;;;;;;;;;;;;;;;;;;10440246;28;20300;-65
2022/06/16 19:04:21;;;;;;;;;;;;;;;;;;10446223;28;20489;-65
2022/06/16 19:09:24;;;;;;;;;;;;;;;;;;10456075;28;19929;-64
2022/06/16 19:14:26;;;;;;;;;;;;;;;;;;10447591;22;19935;-65
2022/06/16 19:19:28;;;;;;;;;;;;;;;;;;10413104;28;19929;-65
2022/06/16 19:24:30;;;;;;;;;;;;;;;;;;10415722;28;20303;-66
2022/06/16 19:29:36;;;;;;;;;;;;;;;;;;10429882;28;20299;-65
2022/06/16 19:34:38;;;;;;;;;;;;;;;;;;10462013;28;20287;-66
2022/06/16 19:39:40;;;;;;;;;;;;;;;;;;10461538;28;19931;-66
2022/06/16 19:55:23;;;;;;;;;;;;;;;;;;10461928;28;19925;-66
2022/06/16 20:00:26;;;;;;;;;;;;;;;;;;10428330;28;19932;-66
2022/06/16 20:05:28;;;;;;;;;;;;;;;;;;10421553;28;19925;-65
2022/06/16 20:10:30;;;;;;;;;;;;;;;;;;10430468;28;19929;-65
2022/06/16 20:15:32;;;;;;;;;;;;;;;;;;10419173;28;19925;-66
2022/06/16 20:20:34;;;;;;;;;;;;;;;;;;10419870;28;19929;-66
2022/06/16 20:25:36;;;;;;;;;;;;;;;;;;10420052;28;20383;-65
2022/06/16 20:30:39;;;;;;;;;;;;;;;;;;10421602;28;19936;-65
2022/06/16 20:35:41;;;;;;;;;;;;;;;;;;10419278;28;19931;-66
2022/06/16 20:40:43;;;;;;;;;;;;;;;;;;10419053;28;19932;-66
2022/06/16 20:45:47;;;;;;;;;;;;;;;;;;10421093;28;19932;-66
2022/06/16 20:50:53;;;;;;;;;;;;;;;;;;10434975;28;20024;-66
2022/06/16 20:55:58;;;;;;;;;;;;;;;;;;10459104;28;20292;-65
2022/06/16 21:06:21;;;;;;;;;;;;;;;;;;10459354;28;19975;-65
2022/06/16 21:16:44;;;;;;;;;;;;;;;;;;10445603;28;20043;-66
2022/06/16 21:21:46;;;;;;;;;;;;;;;;;;10458676;28;19925;-66
2022/06/16 21:26:49;;;;;;;;;;;;;;;;;;10458811;28;19929;-66
2022/06/16 21:31:51;;;;;;;;;;;;;;;;;;10431435;28;19925;-67
2022/06/16 21:36:54;;;;;;;;;;;;;;;;;;10417010;28;19931;-66
2022/06/16 21:41:56;;;;;;;;;;;;;;;;;;10421909;28;19932;-66
2022/06/16 21:46:59;;;;;;;;;;;;;;;;;;10457235;28;20368;-66
2022/06/16 21:52:01;;;;;;;;;;;;;;;;;;10454898;28;19925;-66
2022/06/16 21:57:03;;;;;;;;;;;;;;;;;;10456849;28;20383;-66
2022/06/16 22:02:06;;;;;;;;;;;;;;;;;;10456774;28;19925;-66
2022/06/16 22:07:08;;;;;;;;;;;;;;;;;;10427450;28;19952;-66
2022/06/16 22:12:22;;;;;;;;;;;;;;;;;;10416763;28;19926;-65
2022/06/16 22:17:24;;;;;;;;;;;;;;;;;;10415905;28;19925;-66
2022/06/16 22:22:32;;;;;;;;;;;;;;;;;;10415263;28;20448;-66
2022/06/16 22:27:34;;;;;;;;;;;;;;;;;;10415067;28;20299;-65
2022/06/16 22:32:36;;;;;;;;;;;;;;;;;;10416275;28;19925;-66
2022/06/16 22:37:38;;;;;;;;;;;;;;;;;;10422196;28;19943;-66
2022/06/16 22:42:40;;;;;;;;;;;;;;;;;;10456697;28;19924;-66
2022/06/16 22:47:42;;;;;;;;;;;;;;;;;;10456530;28;19940;-65
2022/06/16 22:52:45;;;;;;;;;;;;;;;;;;10454762;28;19936;-66
2022/06/16 22:57:47;;;;;;;;;;;;;;;;;;10456403;28;19932;-65
2022/06/16 23:02:49;;;;;;;;;;;;;;;;;;10455671;28;20288;-65
2022/06/16 23:07:52;;;;;;;;;;;;;;;;;;10418328;28;19925;-66
2022/06/16 23:12:54;;;;;;;;;;;;;;;;;;10451123;28;19932;-65
2022/06/16 23:17:56;;;;;;;;;;;;;;;;;;10462434;28;19924;-66
2022/06/16 23:22:58;;;;;;;;;;;;;;;;;;10463133;28;19931;-65
2022/06/16 23:28:00;;;;;;;;;;;;;;;;;;10463490;28;19932;-65
2022/06/16 23:33:02;;;;;;;;;;;;;;;;;;10461598;28;19931;-65
2022/06/16 23:38:04;;;;;;;;;;;;;;;;;;10462851;28;19925;-66
2022/06/16 23:43:06;;;;;;;;;;;;;;;;;;10462604;28;19925;-66
2022/06/16 23:48:20;;;;;;;;;;;;;;;;;;10462117;28;19976;-66
2022/06/16 23:53:22;;;;;;;;;;;;;;;;;;10459823;28;19947;-66
2022/06/16 23:58:25;;;;;;;;;;;;;;;;;;10449716;28;20392;-65
